Time;durP1;ratioP1;P1;durP2;ratioP2;P2;SDS_P1;SDS_P2;PMS_P1;PMS_P2;Temp;Humidity;BMP_temperature;BMP_pressure;BME280_temperature;BME280_humidity;BME280_pressure;Samples;Min_cycle;Max_cycle;Signal;HPM_P1;HPM_P2
2021/12/11 00:00:53;;;;;;;1.30;1.30;;;-1.90;99.90;;;;;;4977008;28;20054;-84
2021/12/11 00:03:34;;;;;;;0.85;0.85;;;-1.90;99.90;;;;;;4976384;28;20047;-82
2021/12/11 00:06:14;;;;;;;1.65;1.27;;;-1.90;99.90;;;;;;4994971;28;20054;-85
2021/12/11 00:08:41;;;;;;;1.75;1.65;;;-1.90;99.90;;;;;;4994448;28;20053;-85
2021/12/11 00:11:15;;;;;;;1.02;1.02;;;-1.90;99.90;;;;;;4994660;28;20042;-84
2021/12/11 00:13:43;;;;;;;1.53;1.47;;;-2.00;99.90;;;;;;4995063;28;20050;-85
2021/12/11 00:16:17;;;;;;;1.15;0.88;;;-2.00;99.90;;;;;;4994885;28;20495;-85
2021/12/11 00:18:43;;;;;;;2.40;2.28;;;-2.00;99.90;;;;;;4994770;28;20053;-86
2021/12/11 00:21:15;;;;;;;6.03;5.82;;;-2.00;99.90;;;;;;4994823;28;20056;-85
2021/12/11 00:23:43;;;;;;;0.90;0.90;;;-2.00;99.90;;;;;;4977345;28;20042;-81
2021/12/11 00:26:12;;;;;;;5.28;3.03;;;-2.00;99.90;;;;;;5007967;28;20048;-79
2021/12/11 00:28:49;;;;;;;1.65;1.55;;;-2.00;99.90;;;;;;4981413;28;20046;-83
2021/12/11 00:31:17;;;;;;;0.82;0.82;;;-2.00;99.90;;;;;;4977406;28;20060;-84
2021/12/11 00:33:43;;;;;;;0.70;0.70;;;-2.00;99.90;;;;;;4994822;28;20038;-86
2021/12/11 00:36:14;;;;;;;1.08;1.08;;;-2.00;99.90;;;;;;4976864;28;20391;-84
2021/12/11 00:38:41;;;;;;;1.35;1.35;;;-2.00;99.90;;;;;;4994352;28;20166;-85
2021/12/11 00:41:11;;;;;;;2.45;2.35;;;-2.00;99.90;;;;;;4994286;28;20054;-85
2021/12/11 00:43:40;;;;;;;2.67;2.47;;;-2.10;99.90;;;;;;4960635;28;20038;-87
2021/12/11 00:46:16;;;;;;;1.58;1.52;;;-2.10;99.90;;;;;;4994330;28;20061;-84
2021/12/11 00:48:43;;;;;;;1.08;0.95;;;-2.10;99.90;;;;;;4961148;28;20046;-86
2021/12/11 00:51:14;;;;;;;2.95;2.05;;;-2.20;99.90;;;;;;4994028;28;20053;-87
2021/12/11 00:53:48;;;;;;;2.08;2.08;;;-2.20;99.90;;;;;;4994494;28;20081;-88
2021/12/11 00:56:29;;;;;;;1.05;1.00;;;-2.20;99.90;;;;;;4975275;28;20125;-82
2021/12/11 00:59:00;;;;;;;1.08;1.08;;;-2.20;99.90;;;;;;4990847;28;20062;-86
2021/12/11 01:01:37;;;;;;;2.15;2.05;;;-2.20;99.90;;;;;;4976885;28;20046;-81
2021/12/11 01:04:41;;;;;;;1.42;1.42;;;-2.20;99.90;;;;;;4993956;28;20086;-85
2021/12/11 01:07:31;;;;;;;3.33;2.55;;;-2.10;99.90;;;;;;4896085;29;20099;-86
2021/12/11 01:10:01;;;;;;;2.20;2.17;;;-2.10;99.90;;;;;;4880478;29;20048;-83
2021/12/11 01:12:53;;;;;;;2.25;2.05;;;-2.10;99.90;;;;;;4880011;29;20143;-83
2021/12/11 01:15:35;;;;;;;2.97;1.08;;;-2.10;99.90;;;;;;4883940;29;20044;-77
2021/12/11 01:21:01;;;;;;;1.15;1.15;;;-2.10;99.90;;;;;;4896061;29;20521;-85
2021/12/11 01:23:47;;;;;;;11.73;2.10;;;-2.10;99.90;;;;;;4880112;29;20064;-83
2021/12/11 01:26:16;;;;;;;0.38;0.38;;;-2.10;99.90;;;;;;4880192;29;20099;-83
2021/12/11 01:28:42;;;;;;;4.93;3.75;;;-2.20;99.90;;;;;;4880202;29;20045;-85
2021/12/11 01:31:13;;;;;;;8.10;4.25;;;-2.30;99.90;;;;;;4895743;29;20501;-85
2021/12/11 01:33:39;;;;;;;0.88;0.88;;;-2.30;99.90;;;;;;4879894;29;20065;-84
2021/12/11 01:36:06;;;;;;;2.47;2.47;;;-2.30;99.90;;;;;;4895298;29;20181;-82
2021/12/11 01:38:33;;;;;;;3.38;3.17;;;-2.30;99.90;;;;;;4895542;29;20049;-84
2021/12/11 01:41:04;;;;;;;1.70;1.70;;;-2.30;99.90;;;;;;4879919;29;20059;-84
2021/12/11 01:43:32;;;;;;;5.43;3.93;;;-2.30;99.90;;;;;;4933808;28;20446;-84
2021/12/11 01:46:00;;;;;;;2.50;2.40;;;-2.40;99.90;;;;;;4993221;28;20755;-84
2021/12/11 01:48:37;;;;;;;1.05;1.05;;;-2.30;99.90;;;;;;4975818;28;20118;-83
2021/12/11 01:51:08;;;;;;;2.33;1.02;;;-2.30;99.90;;;;;;4975904;28;20049;-84
2021/12/11 01:53:41;;;;;;;28.90;2.33;;;-2.30;99.90;;;;;;4993040;28;20039;-84
2021/12/11 01:56:15;;;;;;;3.78;3.47;;;-2.40;99.90;;;;;;4975497;28;20050;-85
2021/12/11 01:58:50;;;;;;;1.85;0.80;;;-2.40;99.90;;;;;;4975583;28;20069;-85
2021/12/11 02:01:28;;;;;;;3.60;2.38;;;-2.40;99.90;;;;;;4993457;28;20140;-85
2021/12/11 02:03:55;;;;;;;2.17;2.08;;;-2.40;99.90;;;;;;4978450;28;20082;-84
2021/12/11 02:06:25;;;;;;;1.90;1.85;;;-2.50;99.90;;;;;;4979648;28;20402;-85
2021/12/11 02:08:51;;;;;;;0.75;0.75;;;-2.50;99.90;;;;;;4997366;28;20049;-85
2021/12/11 02:11:22;;;;;;;0.95;0.95;;;-2.50;99.90;;;;;;4979529;28;20050;-84
2021/12/11 02:13:55;;;;;;;0.98;0.75;;;-2.50;99.90;;;;;;4979494;28;20046;-83
2021/12/11 02:16:32;;;;;;;2.53;2.05;;;-2.50;99.90;;;;;;4997340;28;20047;-84
2021/12/11 02:19:06;;;;;;;0.90;0.90;;;-2.50;99.90;;;;;;4963314;28;20089;-85
2021/12/11 02:21:36;;;;;;;1.80;1.70;;;-2.40;99.90;;;;;;4996886;28;20044;-86
2021/12/11 02:24:09;;;;;;;2.47;2.30;;;-2.40;99.90;;;;;;4979296;28;20050;-85
2021/12/11 02:26:38;;;;;;;2.80;1.90;;;-2.40;99.90;;;;;;4979202;28;20082;-83
2021/12/11 02:29:24;;;;;;;0.47;0.47;;;-2.40;99.90;;;;;;4996849;28;20486;-86
2021/12/11 02:32:01;;;;;;;2.40;2.25;;;-2.30;99.90;;;;;;4996977;28;20046;-84
2021/12/11 02:34:56;;;;;;;2.47;1.30;;;-2.30;99.90;;;;;;4979485;28;20050;-85
2021/12/11 02:37:37;;;;;;;0.77;0.77;;;-2.30;99.90;;;;;;4917598;29;20143;-86
2021/12/11 02:40:14;;;;;;;1.17;0.60;;;-2.30;99.90;;;;;;4933467;29;20059;-88
2021/12/11 02:42:50;;;;;;;3.92;3.72;;;-2.30;99.90;;;;;;4901820;29;20100;-87
2021/12/11 02:45:27;;;;;;;12.23;5.07;;;-2.30;99.90;;;;;;4917853;29;20051;-85
2021/12/11 02:48:08;;;;;;;0.50;0.50;;;-2.30;99.90;;;;;;4917411;29;20481;-87
2021/12/11 02:50:40;;;;;;;1.90;1.80;;;-2.30;99.90;;;;;;4917559;29;20524;-86
2021/12/11 02:53:31;;;;;;;0.50;0.50;;;-2.30;99.90;;;;;;4901547;29;20059;-85
2021/12/11 02:56:17;;;;;;;0.80;0.80;;;-2.40;99.90;;;;;;4916811;29;20084;-85
2021/12/11 02:58:52;;;;;;;0.50;0.50;;;-2.40;99.90;;;;;;4901447;29;20074;-84
2021/12/11 03:01:23;;;;;;;0.75;0.75;;;-2.40;99.90;;;;;;4917231;29;20092;-80
2021/12/11 03:03:56;;;;;;;4.32;4.07;;;-2.40;99.90;;;;;;4917010;29;20044;-82
2021/12/11 03:06:26;;;;;;;0.45;0.45;;;-2.40;99.90;;;;;;4932704;29;20055;-83
2021/12/11 03:08:56;;;;;;;0.43;0.43;;;-2.40;99.90;;;;;;4916994;29;20053;-82
2021/12/11 03:11:24;;;;;;;2.30;0.82;;;-2.30;99.90;;;;;;4901124;29;20078;-81
2021/12/11 03:13:52;;;;;;;1.88;1.88;;;-2.30;99.90;;;;;;4945834;28;20055;-83
2021/12/11 03:16:21;;;;;;;1.42;1.33;;;-2.30;99.90;;;;;;4995929;28;20042;-81
2021/12/11 03:18:48;;;;;;;0.68;0.68;;;-2.30;99.90;;;;;;4978601;28;20093;-83
2021/12/11 03:21:14;;;;;;;0.63;0.63;;;-2.30;99.90;;;;;;4978286;28;20133;-83
2021/12/11 03:23:40;;;;;;;1.55;1.55;;;-2.30;99.90;;;;;;4995627;28;20125;-82
2021/12/11 03:26:06;;;;;;;3.60;1.98;;;-2.30;99.90;;;;;;4995314;28;20046;-79
2021/12/11 03:28:32;;;;;;;0.40;0.40;;;-2.30;99.90;;;;;;4978147;28;20043;-84
2021/12/11 03:31:00;;;;;;;0.47;0.47;;;-2.40;99.90;;;;;;4978185;28;20441;-83
2021/12/11 03:33:33;;;;;;;0.73;0.73;;;-2.50;99.90;;;;;;4978209;28;20050;-84
2021/12/11 03:36:00;;;;;;;4.95;1.38;;;-2.50;99.90;;;;;;4995253;28;20050;-82
2021/12/11 03:38:27;;;;;;;0.82;0.82;;;-2.60;99.90;;;;;;4995629;28;20054;-83
2021/12/11 03:40:53;;;;;;;1.13;1.13;;;-2.60;99.90;;;;;;4978111;28;20475;-82
2021/12/11 03:43:21;;;;;;;4.47;2.17;;;-2.70;99.90;;;;;;4994532;28;20537;-84
2021/12/11 03:45:50;;;;;;;3.45;3.17;;;-2.70;99.90;;;;;;4995222;28;20054;-83
2021/12/11 03:48:25;;;;;;;0.65;0.65;;;-2.70;99.90;;;;;;4978211;28;20475;-84
2021/12/11 03:50:51;;;;;;;0.40;0.40;;;-2.80;99.90;;;;;;4995384;28;20046;-83
2021/12/11 03:53:18;;;;;;;1.85;1.77;;;-2.80;99.90;;;;;;4995213;28;20045;-82
2021/12/11 03:55:58;;;;;;;2.42;1.38;;;-2.80;99.90;;;;;;4977539;28;20117;-82
2021/12/11 03:58:24;;;;;;;1.05;1.05;;;-2.80;99.90;;;;;;4994956;28;20050;-83
2021/12/11 04:00:53;;;;;;;0.77;0.77;;;-2.80;99.90;;;;;;4977765;28;20046;-83
2021/12/11 04:03:24;;;;;;;6.63;0.98;;;-2.70;99.90;;;;;;4977648;28;20455;-85
2021/12/11 04:05:51;;;;;;;0.40;0.40;;;-2.70;99.90;;;;;;4977376;28;20092;-84
2021/12/11 04:08:24;;;;;;;1.02;1.02;;;-2.50;99.90;;;;;;4995286;28;20046;-85
2021/12/11 04:10:50;;;;;;;3.65;3.22;;;-2.50;99.90;;;;;;4995145;28;20061;-86
2021/12/11 04:13:17;;;;;;;3.25;0.93;;;-2.30;99.90;;;;;;4977884;28;20053;-85
2021/12/11 04:15:47;;;;;;;1.48;1.45;;;-2.30;99.90;;;;;;4977394;28;20410;-82
2021/12/11 04:18:13;;;;;;;0.40;0.40;;;-2.30;99.90;;;;;;4995125;28;20121;-82
2021/12/11 04:20:42;;;;;;;3.40;2.70;;;-2.30;99.90;;;;;;4994767;28;20054;-84
2021/12/11 04:23:11;;;;;;;3.15;2.97;;;-2.40;99.90;;;;;;4994864;28;20065;-84
2021/12/11 04:25:40;;;;;;;0.95;0.95;;;-2.50;99.90;;;;;;4993949;28;20057;-86
2021/12/11 04:28:06;;;;;;;1.77;1.77;;;-2.50;99.90;;;;;;4977460;28;20196;-83
2021/12/11 04:30:32;;;;;;;3.45;2.05;;;-2.60;99.90;;;;;;4994654;28;20046;-84
2021/12/11 04:32:58;;;;;;;0.60;0.60;;;-2.60;99.90;;;;;;4994820;28;20054;-83
2021/12/11 04:35:29;;;;;;;0.40;0.40;;;-2.60;99.90;;;;;;4977130;28;20057;-83
2021/12/11 04:37:57;;;;;;;0.57;0.57;;;-2.60;99.90;;;;;;4994625;28;20048;-83
2021/12/11 04:40:28;;;;;;;0.68;0.60;;;-2.70;99.90;;;;;;4994603;28;20054;-82
2021/12/11 04:45:39;;;;;;;1.65;0.93;;;-2.70;99.90;;;;;;4994285;28;20053;-82
2021/12/11 04:48:19;;;;;;;0.90;0.90;;;-2.70;99.90;;;;;;4993875;28;20141;-82
2021/12/11 04:50:54;;;;;;;0.40;0.40;;;-2.70;99.90;;;;;;4994280;28;20046;-83
2021/12/11 04:56:26;;;;;;;0.88;0.88;;;-2.80;99.90;;;;;;4976952;28;20062;-83
2021/12/11 04:59:09;;;;;;;0.35;0.35;;;-2.80;99.90;;;;;;4993928;28;20132;-84
2021/12/11 05:01:48;;;;;;;0.75;0.75;;;-2.80;99.90;;;;;;4993889;28;20464;-82
2021/12/11 05:07:04;;;;;;;2.55;1.92;;;-2.80;99.90;;;;;;4993412;28;20058;-81
2021/12/11 05:09:41;;;;;;;0.88;0.88;;;-2.80;99.90;;;;;;4993965;28;20050;-82
2021/12/11 05:14:52;;;;;;;0.98;0.98;;;-2.90;99.90;;;;;;4993818;28;20054;-83
2021/12/11 05:17:19;;;;;;;2.60;1.27;;;-2.90;99.90;;;;;;4994002;28;20035;-78
2021/12/11 05:19:45;;;;;;;2.03;1.92;;;-2.90;99.90;;;;;;4976469;28;20125;-83
2021/12/11 05:22:12;;;;;;;0.45;0.45;;;-2.80;99.90;;;;;;4993952;28;20054;-81
2021/12/11 05:24:41;;;;;;;2.45;1.13;;;-2.80;99.90;;;;;;4993756;28;20470;-82
2021/12/11 05:27:08;;;;;;;0.43;0.43;;;-2.80;99.90;;;;;;4993624;28;20237;-82
2021/12/11 05:29:34;;;;;;;0.52;0.52;;;-2.80;99.90;;;;;;4976471;28;20042;-84
2021/12/11 05:32:04;;;;;;;1.23;1.20;;;-2.80;99.90;;;;;;4976183;28;20129;-81
2021/12/11 05:34:35;;;;;;;2.22;2.20;;;-2.90;99.90;;;;;;4993741;28;20446;-84
2021/12/11 05:37:01;;;;;;;1.95;1.85;;;-2.90;99.90;;;;;;4976204;28;20082;-83
2021/12/11 05:39:27;;;;;;;3.83;3.63;;;-2.90;99.90;;;;;;4993580;28;20073;-83
2021/12/11 05:41:53;;;;;;;5.57;2.85;;;-2.80;99.90;;;;;;4993509;28;20078;-83
2021/12/11 05:44:20;;;;;;;2.17;2.08;;;-2.90;99.90;;;;;;4975904;28;20053;-82
2021/12/11 05:46:47;;;;;;;8.27;3.55;;;-2.90;99.90;;;;;;4976090;28;20060;-84
2021/12/11 05:49:14;;;;;;;2.78;2.58;;;-2.90;99.90;;;;;;4993681;28;20390;-82
2021/12/11 05:51:44;;;;;;;0.38;0.38;;;-3.00;99.90;;;;;;4975987;28;20050;-83
2021/12/11 05:54:15;;;;;;;2.10;2.10;;;-2.90;99.90;;;;;;4993499;28;20493;-82
2021/12/11 05:56:42;;;;;;;5.45;4.93;;;-2.90;99.90;;;;;;4993330;28;20077;-82
2021/12/11 05:59:14;;;;;;;2.55;2.35;;;-2.90;99.90;;;;;;4993050;28;20558;-82
2021/12/11 06:02:00;;;;;;;0.35;0.35;;;-2.90;99.90;;;;;;4993389;28;20042;-83
2021/12/11 06:04:31;;;;;;;0.63;0.63;;;-3.00;99.90;;;;;;4975687;28;20061;-81
2021/12/11 06:06:58;;;;;;;0.30;0.30;;;-3.00;99.90;;;;;;4993260;28;20092;-83
2021/12/11 06:09:26;;;;;;;1.48;1.48;;;-3.00;99.90;;;;;;4975729;28;20054;-83
2021/12/11 06:11:55;;;;;;;0.88;0.88;;;-2.90;99.90;;;;;;4993336;28;20035;-83
2021/12/11 06:14:21;;;;;;;0.68;0.68;;;-2.90;99.90;;;;;;4993324;28;20050;-83
2021/12/11 06:16:50;;;;;;;0.70;0.70;;;-2.90;99.90;;;;;;4993347;28;20487;-83
2021/12/11 06:19:20;;;;;;;2.38;0.85;;;-2.90;99.90;;;;;;4993224;28;20070;-83
2021/12/11 06:21:50;;;;;;;1.60;1.50;;;-2.90;99.90;;;;;;4976010;28;20491;-83
2021/12/11 06:24:20;;;;;;;1.42;1.42;;;-2.90;99.90;;;;;;4993171;28;20046;-83
2021/12/11 06:26:47;;;;;;;4.18;2.05;;;-2.90;99.90;;;;;;4975826;28;20050;-82
2021/12/11 06:29:12;;;;;;;4.57;2.05;;;-2.90;99.90;;;;;;4993253;28;20054;-81
2021/12/11 06:31:39;;;;;;;1.63;1.38;;;-2.90;99.90;;;;;;4993118;28;20056;-86
2021/12/11 06:34:04;;;;;;;2.45;2.35;;;-3.00;99.90;;;;;;4993065;28;20050;-85
2021/12/11 06:36:31;;;;;;;0.93;0.88;;;-3.00;99.90;;;;;;4992995;28;20507;-84
2021/12/11 06:39:00;;;;;;;2.53;2.42;;;-3.10;99.90;;;;;;4992899;28;20570;-84
2021/12/11 06:41:31;;;;;;;3.25;3.15;;;-3.10;99.90;;;;;;4975588;28;20046;-83
2021/12/11 06:43:58;;;;;;;1.20;1.20;;;-3.10;99.90;;;;;;4993057;28;20116;-83
2021/12/11 06:46:23;;;;;;;0.60;0.60;;;-3.10;99.90;;;;;;4975400;28;20480;-83
2021/12/11 06:48:51;;;;;;;2.22;1.33;;;-3.10;99.90;;;;;;4976530;28;20128;-83
2021/12/11 06:51:17;;;;;;;0.30;0.30;;;-3.10;99.90;;;;;;4996549;28;20077;-83
2021/12/11 06:53:58;;;;;;;1.42;1.35;;;-3.10;99.90;;;;;;4996517;28;20521;-83
2021/12/11 06:56:24;;;;;;;1.23;1.23;;;-3.20;99.90;;;;;;4979181;28;20380;-84
2021/12/11 06:58:52;;;;;;;3.63;2.10;;;-3.20;99.90;;;;;;4996367;28;20046;-85
2021/12/11 07:01:19;;;;;;;0.32;0.32;;;-3.20;99.90;;;;;;4996556;28;20410;-85
2021/12/11 07:03:44;;;;;;;1.55;1.55;;;-3.20;99.90;;;;;;4996480;28;20050;-84
2021/12/11 07:06:11;;;;;;;8.77;6.28;;;-3.10;99.90;;;;;;4996655;28;20407;-85
2021/12/11 07:08:38;;;;;;;0.55;0.55;;;-3.20;99.90;;;;;;4962863;28;20463;-85
2021/12/11 07:11:05;;;;;;;2.28;1.38;;;-3.20;99.90;;;;;;4996335;28;20109;-84
2021/12/11 07:13:31;;;;;;;1.40;1.40;;;-3.10;99.90;;;;;;4996126;28;20046;-85
2021/12/11 07:15:57;;;;;;;4.85;2.15;;;-3.20;99.90;;;;;;4978943;28;20054;-84
2021/12/11 07:18:24;;;;;;;2.88;2.75;;;-3.10;99.90;;;;;;4978961;28;20498;-84
2021/12/11 07:20:51;;;;;;;2.42;2.33;;;-3.20;99.90;;;;;;4996431;28;20050;-83
2021/12/11 07:23:17;;;;;;;1.05;1.05;;;-3.10;99.90;;;;;;4978830;28;20035;-84
2021/12/11 07:26:01;;;;;;;3.70;3.40;;;-3.10;99.90;;;;;;4995897;28;20042;-83
2021/12/11 07:28:27;;;;;;;1.85;1.85;;;-3.10;99.90;;;;;;4978630;28;20042;-84
2021/12/11 07:30:57;;;;;;;1.02;1.02;;;-3.10;99.90;;;;;;4995890;28;20399;-82
2021/12/11 07:33:23;;;;;;;11.68;2.25;;;-3.10;99.90;;;;;;4995634;28;20053;-78
2021/12/11 07:35:49;;;;;;;1.40;1.30;;;-3.10;99.90;;;;;;4978253;28;20097;-83
2021/12/11 07:38:16;;;;;;;0.73;0.73;;;-3.00;99.90;;;;;;4996107;28;20042;-75
2021/12/11 07:40:55;;;;;;;1.65;1.65;;;-3.10;99.90;;;;;;4995735;28;20475;-78
2021/12/11 07:43:24;;;;;;;2.00;1.90;;;-3.10;99.90;;;;;;4978394;28;20050;-85
2021/12/11 07:45:51;;;;;;;3.22;3.13;;;-3.00;99.90;;;;;;4995280;28;20054;-84
2021/12/11 07:48:17;;;;;;;2.70;2.60;;;-3.10;99.90;;;;;;4995838;28;20050;-82
2021/12/11 07:50:45;;;;;;;2.20;2.00;;;-3.10;99.90;;;;;;4978213;28;20436;-82
2021/12/11 07:53:12;;;;;;;2.65;2.38;;;-3.10;99.90;;;;;;4995184;28;20050;-83
2021/12/11 07:55:38;;;;;;;2.22;1.98;;;-3.10;99.90;;;;;;4995388;28;20038;-82
2021/12/11 07:58:05;;;;;;;3.05;2.85;;;-3.10;99.90;;;;;;4994908;28;20141;-83
2021/12/11 08:00:33;;;;;;;3.20;2.75;;;-3.10;99.90;;;;;;4994200;28;20061;-82
2021/12/11 08:02:59;;;;;;;4.53;4.25;;;-3.10;99.90;;;;;;4977671;28;20078;-83
2021/12/11 08:05:27;;;;;;;4.15;0.98;;;-3.00;99.90;;;;;;4977576;28;20094;-82
2021/12/11 08:07:53;;;;;;;6.80;4.90;;;-3.00;99.90;;;;;;4977865;28;20035;-82
2021/12/11 08:10:23;;;;;;;5.20;3.95;;;-3.00;99.90;;;;;;4961389;28;20042;-83
2021/12/11 08:12:49;;;;;;;2.67;1.85;;;-3.00;99.90;;;;;;4995101;28;20105;-82
2021/12/11 08:15:17;;;;;;;8.90;3.60;;;-2.90;99.90;;;;;;4994875;28;20454;-83
2021/12/11 08:17:44;;;;;;;1.75;1.73;;;-2.90;99.90;;;;;;4977259;28;20049;-82
2021/12/11 08:20:12;;;;;;;2.97;2.88;;;-2.90;99.90;;;;;;4994901;28;20096;-83
2021/12/11 08:22:38;;;;;;;2.45;2.35;;;-2.80;99.90;;;;;;4977710;28;20046;-83
2021/12/11 08:25:05;;;;;;;1.95;1.85;;;-2.80;99.90;;;;;;4994713;28;20039;-83
2021/12/11 08:27:32;;;;;;;3.72;2.80;;;-2.80;99.90;;;;;;4977076;28;20050;-83
2021/12/11 08:29:58;;;;;;;0.70;0.70;;;-2.70;99.90;;;;;;4994606;28;20053;-83
2021/12/11 08:32:25;;;;;;;0.70;0.70;;;-2.70;99.90;;;;;;4977460;28;20042;-83
2021/12/11 08:34:52;;;;;;;2.53;2.42;;;-2.70;99.90;;;;;;4994559;28;20110;-83
2021/12/11 08:37:20;;;;;;;8.27;4.03;;;-2.70;99.90;;;;;;4994474;28;20049;-82
2021/12/11 08:39:46;;;;;;;2.30;2.30;;;-2.60;99.90;;;;;;4994581;28;20230;-81
2021/12/11 08:42:16;;;;;;;3.72;2.60;;;-2.60;99.90;;;;;;4977095;28;20053;-83
2021/12/11 08:44:58;;;;;;;15.60;3.92;;;-2.50;99.90;;;;;;4976751;28;20057;-83
2021/12/11 08:47:25;;;;;;;1.90;1.80;;;-2.50;99.90;;;;;;4977129;28;20113;-83
2021/12/11 08:49:53;;;;;;;1.75;1.65;;;-2.50;99.90;;;;;;4994301;28;20399;-83
2021/12/11 08:52:35;;;;;;;1.23;1.20;;;-2.50;99.90;;;;;;4994164;28;20038;-82
2021/12/11 08:55:03;;;;;;;;;;;-2.40;99.90;;;;;;4994884;28;20433;-83
2021/12/11 08:57:33;;;;;;;1.75;1.02;;;-2.40;99.90;;;;;;4977070;28;20271;-83
2021/12/11 09:00:08;;;;;;;1.65;1.60;;;-2.40;99.90;;;;;;4994703;28;20137;-84
2021/12/11 09:02:41;;;;;;;4.95;4.75;;;-2.30;99.90;;;;;;4994146;28;20105;-84
2021/12/11 09:05:21;;;;;;;2.28;2.17;;;-2.30;99.90;;;;;;4993950;28;20043;-84
2021/12/11 09:07:54;;;;;;;0.73;0.73;;;-2.20;99.90;;;;;;4976694;28;20042;-85
2021/12/11 09:10:45;;;;;;;2.75;2.65;;;-2.10;99.90;;;;;;4994253;28;20389;-85
2021/12/11 09:13:23;;;;;;;2.63;1.70;;;-2.10;99.90;;;;;;4976594;28;20077;-84
2021/12/11 09:16:18;;;;;;;0.77;0.77;;;-2.00;99.90;;;;;;4976669;28;20084;-85
2021/12/11 09:18:49;;;;;;;1.95;1.80;;;-2.00;99.90;;;;;;4994070;28;20085;-85
2021/12/11 09:21:47;;;;;;;2.17;1.98;;;-1.90;99.90;;;;;;4976916;28;20046;-85
2021/12/11 09:24:24;;;;;;;2.15;2.05;;;-1.80;99.90;;;;;;4917951;29;20409;-84
2021/12/11 09:27:07;;;;;;;6.97;6.47;;;-1.80;99.90;;;;;;4917912;29;20052;-84
2021/12/11 09:29:38;;;;;;;25.75;10.75;;;-1.70;99.90;;;;;;4917833;29;20413;-84
2021/12/11 09:32:04;;;;;;;8.40;7.75;;;-1.60;99.90;;;;;;4918164;29;20282;-85
2021/12/11 09:34:35;;;;;;;5.97;5.57;;;-1.60;99.90;;;;;;4934091;29;20056;-85
2021/12/11 09:37:03;;;;;;;18.13;10.75;;;-1.40;99.90;;;;;;4917973;29;20086;-84
2021/12/11 09:39:43;;;;;;;3.83;3.50;;;-1.40;99.90;;;;;;4933586;29;20134;-85
2021/12/11 09:42:09;;;;;;;6.82;6.22;;;-1.30;99.90;;;;;;4933906;29;20579;-85
2021/12/11 09:44:48;;;;;;;6.38;5.30;;;-1.20;99.90;;;;;;4933636;29;20052;-84
2021/12/11 09:47:22;;;;;;;19.83;10.02;;;-1.10;99.90;;;;;;4933715;29;20547;-85
2021/12/11 09:49:56;;;;;;;7.07;6.68;;;-0.90;99.90;;;;;;4933912;29;20058;-80
2021/12/11 09:52:23;;;;;;;9.95;7.90;;;-0.90;99.90;;;;;;4933827;29;20133;-86
2021/12/11 09:55:12;;;;;;;9.82;6.03;;;-0.80;99.90;;;;;;4918053;29;20115;-83
2021/12/11 09:57:42;;;;;;;3.70;3.42;;;-0.80;99.90;;;;;;4918675;29;20106;-83
2021/12/11 10:00:17;;;;;;;5.80;5.25;;;-0.70;99.90;;;;;;4937979;28;20450;-82
2021/12/11 10:02:43;;;;;;;6.65;2.83;;;-0.60;99.90;;;;;;4993288;28;20062;-83
2021/12/11 10:05:38;;;;;;;4.53;2.05;;;-0.50;99.90;;;;;;4975920;28;20050;-84
2021/12/11 10:10:52;;;;;;;1.23;1.23;;;-0.40;99.90;;;;;;4993172;28;20046;-82
2021/12/11 10:13:19;;;;;;;6.65;3.33;;;-0.30;99.90;;;;;;4993413;28;20105;-80
2021/12/11 10:15:45;;;;;;;1.65;1.58;;;-0.20;99.90;;;;;;4993335;28;20129;-83
2021/12/11 10:18:18;;;;;;;3.90;3.60;;;-0.20;99.90;;;;;;4993195;28;20038;-84
2021/12/11 10:21:06;;;;;;;3.22;3.13;;;-0.10;99.90;;;;;;4976135;28;20392;-84
2021/12/11 10:23:35;;;;;;;2.97;2.70;;;-0.10;99.90;;;;;;4976507;28;20388;-83
2021/12/11 10:26:10;;;;;;;3.17;3.03;;;-0.10;99.90;;;;;;4979387;28;20046;-83
2021/12/11 10:28:39;;;;;;;5.10;3.08;;;-0.20;99.90;;;;;;4979776;28;20069;-85
2021/12/11 10:31:13;;;;;;;1.23;1.23;;;-0.20;99.90;;;;;;4979586;28;20080;-84
2021/12/11 10:33:39;;;;;;;4.45;4.10;;;-0.20;99.90;;;;;;4964381;28;20046;-84
2021/12/11 10:36:09;;;;;;;5.25;2.40;;;-0.20;99.90;;;;;;4979639;28;20077;-85
2021/12/11 10:38:36;;;;;;;1.48;1.42;;;-0.20;99.90;;;;;;4996149;28;20511;-84
2021/12/11 10:41:05;;;;;;;4.68;4.30;;;-0.10;99.90;;;;;;4996719;28;20050;-84
2021/12/11 10:43:46;;;;;;;10.88;2.90;;;-0.10;99.90;;;;;;4979181;28;20050;-84
2021/12/11 10:46:14;;;;;;;18.20;2.28;;;-0.10;99.90;;;;;;4979176;28;20053;-84
2021/12/11 10:48:42;;;;;;;2.40;2.17;;;-0.10;99.90;;;;;;4979015;28;20042;-85
2021/12/11 10:51:19;;;;;;;1.10;1.00;;;0.00;99.90;;;;;;4996650;28;20042;-85
2021/12/11 10:53:47;;;;;;;3.22;1.45;;;-0.10;99.90;;;;;;4996440;28;20487;-85
2021/12/11 10:56:16;;;;;;;3.97;1.77;;;0.00;99.90;;;;;;4996507;28;20046;-84
2021/12/11 10:58:47;;;;;;;1.40;1.30;;;0.00;99.90;;;;;;4978727;28;20058;-85
2021/12/11 11:01:18;;;;;;;1.90;1.88;;;0.00;99.90;;;;;;4996187;28;20372;-85
2021/12/11 11:03:52;;;;;;;1.95;1.85;;;0.00;99.90;;;;;;4996559;28;20046;-83
2021/12/11 11:06:18;;;;;;;2.65;1.95;;;0.00;99.90;;;;;;4996372;28;20053;-79
2021/12/11 11:08:46;;;;;;;6.20;3.20;;;0.00;99.90;;;;;;4996398;28;20046;-84
2021/12/11 11:11:16;;;;;;;5.53;5.00;;;0.10;99.90;;;;;;4996091;28;20057;-85
2021/12/11 11:13:44;;;;;;;1.17;1.15;;;0.10;99.90;;;;;;4996193;28;20042;-84
2021/12/11 11:16:10;;;;;;;2.33;2.22;;;0.10;99.90;;;;;;4996344;28;20047;-85
2021/12/11 11:18:37;;;;;;;8.00;3.70;;;0.20;99.90;;;;;;4996237;28;20042;-84
2021/12/11 11:21:13;;;;;;;8.45;6.95;;;0.20;99.90;;;;;;4978592;28;20513;-86
2021/12/11 11:23:44;;;;;;;5.68;5.00;;;0.30;99.90;;;;;;4995746;28;20049;-85
2021/12/11 11:26:15;;;;;;;11.63;7.40;;;0.40;99.90;;;;;;4995933;28;20077;-85
2021/12/11 11:28:43;;;;;;;4.13;2.95;;;0.50;99.90;;;;;;4996202;28;20035;-85
2021/12/11 11:31:15;;;;;;;10.85;4.57;;;0.60;99.90;;;;;;4996116;28;20402;-85
2021/12/11 11:33:42;;;;;;;10.10;7.07;;;0.60;99.90;;;;;;4995932;28;20038;-86
2021/12/11 11:36:13;;;;;;;5.55;4.35;;;0.60;99.90;;;;;;4978488;28;20039;-82
2021/12/11 11:38:42;;;;;;;6.47;3.88;;;0.70;99.90;;;;;;4995772;28;20126;-82
2021/12/11 11:41:12;;;;;;;4.35;3.47;;;0.70;99.90;;;;;;4995561;28;20066;-84
2021/12/11 11:43:38;;;;;;;7.93;4.05;;;0.70;99.90;;;;;;4978108;28;20038;-85
2021/12/11 11:46:05;;;;;;;4.72;4.53;;;0.80;99.90;;;;;;4995577;28;20047;-83
2021/12/11 11:48:33;;;;;;;2.78;2.67;;;0.90;99.90;;;;;;4995641;28;20035;-84
2021/12/11 11:51:02;;;;;;;7.97;5.45;;;1.00;99.90;;;;;;4978234;28;20050;-86
2021/12/11 11:53:28;;;;;;;5.22;3.53;;;1.00;99.90;;;;;;4995337;28;20046;-84
2021/12/11 11:56:02;;;;;;;12.95;4.22;;;1.00;99.90;;;;;;4977774;28;20112;-84
2021/12/11 11:58:31;;;;;;;2.85;1.65;;;1.10;99.90;;;;;;4977906;28;20046;-84
2021/12/11 12:01:05;;;;;;;2.85;1.70;;;1.10;99.90;;;;;;4977735;28;20058;-84
2021/12/11 12:03:30;;;;;;;3.83;1.48;;;1.10;99.90;;;;;;4978016;28;20046;-86
2021/12/11 12:06:03;;;;;;;5.22;2.67;;;1.10;99.90;;;;;;4977857;28;20462;-86
2021/12/11 12:08:29;;;;;;;2.75;2.65;;;1.10;99.90;;;;;;4978144;28;20399;-85
2021/12/11 12:10:56;;;;;;;2.72;1.55;;;1.10;99.90;;;;;;4977571;28;20050;-81
2021/12/11 12:13:25;;;;;;;4.05;2.00;;;1.10;99.90;;;;;;4995262;28;20046;-80
2021/12/11 12:15:55;;;;;;;3.10;2.45;;;1.20;99.90;;;;;;4977683;28;20062;-79
2021/12/11 12:18:27;;;;;;;7.78;2.42;;;1.20;99.90;;;;;;4995051;28;20066;-84
2021/12/11 12:20:54;;;;;;;5.97;3.60;;;1.30;99.90;;;;;;4977381;28;20053;-80
2021/12/11 12:23:23;;;;;;;4.28;3.42;;;1.20;99.90;;;;;;4977335;28;20180;-83
2021/12/11 12:25:54;;;;;;;5.32;5.03;;;1.20;99.90;;;;;;4961593;28;20564;-84
2021/12/11 12:28:21;;;;;;;1.90;1.83;;;1.30;99.90;;;;;;4994958;28;20085;-82
2021/12/11 12:31:00;;;;;;;5.40;3.45;;;1.40;99.90;;;;;;4994983;28;20100;-85
2021/12/11 12:33:28;;;;;;;2.65;2.45;;;1.50;99.90;;;;;;4977180;28;20561;-84
2021/12/11 12:35:55;;;;;;;9.27;3.20;;;1.70;99.90;;;;;;4994630;28;20149;-86
2021/12/11 12:38:25;;;;;;;4.88;2.42;;;1.90;99.90;;;;;;4977209;28;20043;-83
2021/12/11 12:40:58;;;;;;;5.60;5.03;;;2.10;99.90;;;;;;4994975;28;20046;-84
2021/12/11 12:43:54;;;;;;;5.45;3.72;;;2.30;99.90;;;;;;4994802;28;20043;-82
2021/12/11 12:46:31;;;;;;;3.35;3.22;;;2.50;99.90;;;;;;4993718;28;20058;-83
2021/12/11 12:48:59;;;;;;;3.42;3.22;;;2.70;99.90;;;;;;4961145;28;20047;-83
2021/12/11 12:51:26;;;;;;;32.20;7.07;;;2.90;99.90;;;;;;4977150;28;20055;-87
2021/12/11 12:53:52;;;;;;;4.13;3.15;;;2.90;99.90;;;;;;4996243;28;20085;-87
2021/12/11 12:56:24;;;;;;;4.57;4.13;;;3.00;99.90;;;;;;4977348;28;20042;-84
2021/12/11 12:58:56;;;;;;;5.45;2.85;;;3.00;99.90;;;;;;4994735;28;20062;-84
2021/12/11 13:01:39;;;;;;;14.95;3.55;;;3.10;99.90;;;;;;4994705;28;20062;-84
2021/12/11 13:04:07;;;;;;;4.82;4.22;;;3.10;99.90;;;;;;4994606;28;20078;-82
2021/12/11 13:06:38;;;;;;;6.43;5.88;;;3.10;99.90;;;;;;4994127;28;20050;-83
2021/12/11 13:09:12;;;;;;;7.32;3.65;;;3.20;99.90;;;;;;4976969;28;20082;-86
2021/12/11 13:12:11;;;;;;;2.05;1.95;;;3.20;99.90;;;;;;4976622;28;20061;-83
2021/12/11 13:14:38;;;;;;;12.20;3.53;;;3.20;99.90;;;;;;4993479;28;20042;-84
2021/12/11 13:17:12;;;;;;;3.72;1.90;;;3.20;99.90;;;;;;4976763;28;20078;-82
2021/12/11 13:19:44;;;;;;;3.20;2.67;;;3.20;99.90;;;;;;4994009;28;20038;-82
2021/12/11 13:22:18;;;;;;;3.90;2.80;;;3.20;99.90;;;;;;4976837;28;20056;-85
2021/12/11 13:24:49;;;;;;;4.15;2.88;;;3.10;99.90;;;;;;4994075;28;20044;-87